sensor_id;sensor_type;location;lat;lon;timestamp;P1;durP1;ratioP1;P2;durP2;ratioP2
21299;SDS011;10809;49.476;11.016;2023-02-15T00:01:04;12.83;;;8.30;;
21299;SDS011;10809;49.476;11.016;2023-02-15T00:03:38;14.33;;;7.80;;
21299;SDS011;10809;49.476;11.016;2023-02-15T00:06:08;14.20;;;8.23;;
21299;SDS011;10809;49.476;11.016;2023-02-15T00:08:39;12.23;;;7.63;;
21299;SDS011;10809;49.476;11.016;2023-02-15T00:11:11;14.37;;;8.57;;
21299;SDS011;10809;49.476;11.016;2023-02-15T00:13:43;14.07;;;7.83;;
21299;SDS011;10809;49.476;11.016;2023-02-15T00:16:13;12.43;;;8.03;;
21299;SDS011;10809;49.476;11.016;2023-02-15T00:18:47;13.77;;;7.67;;
21299;SDS011;10809;49.476;11.016;2023-02-15T00:21:17;16.07;;;9.13;;
21299;SDS011;10809;49.476;11.016;2023-02-15T00:23:48;12.27;;;7.70;;
21299;SDS011;10809;49.476;11.016;2023-02-15T00:26:18;11.87;;;8.13;;
21299;SDS011;10809;49.476;11.016;2023-02-15T00:28:49;13.57;;;7.87;;
21299;SDS011;10809;49.476;11.016;2023-02-15T00:31:19;12.20;;;7.37;;
21299;SDS011;10809;49.476;11.016;2023-02-15T00:33:50;13.67;;;8.20;;
21299;SDS011;10809;49.476;11.016;2023-02-15T00:36:20;11.93;;;6.97;;
21299;SDS011;10809;49.476;11.016;2023-02-15T00:38:52;12.93;;;8.10;;
21299;SDS011;10809;49.476;11.016;2023-02-15T00:41:23;11.67;;;7.10;;
21299;SDS011;10809;49.476;11.016;2023-02-15T00:43:53;14.77;;;8.83;;
21299;SDS011;10809;49.476;11.016;2023-02-15T00:46:24;11.70;;;7.60;;
21299;SDS011;10809;49.476;11.016;2023-02-15T00:48:54;14.10;;;8.17;;
21299;SDS011;10809;49.476;11.016;2023-02-15T00:51:25;13.50;;;8.23;;
21299;SDS011;10809;49.476;11.016;2023-02-15T00:53:55;17.53;;;8.17;;
21299;SDS011;10809;49.476;11.016;2023-02-15T00:56:26;14.80;;;8.50;;
21299;SDS011;10809;49.476;11.016;2023-02-15T00:58:58;13.77;;;8.53;;
21299;SDS011;10809;49.476;11.016;2023-02-15T01:01:38;15.07;;;8.57;;
21299;SDS011;10809;49.476;11.016;2023-02-15T01:04:08;13.27;;;7.83;;
21299;SDS011;10809;49.476;11.016;2023-02-15T01:06:39;13.33;;;8.40;;
21299;SDS011;10809;49.476;11.016;2023-02-15T01:09:09;12.60;;;7.67;;
21299;SDS011;10809;49.476;11.016;2023-02-15T01:11:40;13.40;;;8.33;;
21299;SDS011;10809;49.476;11.016;2023-02-15T01:14:11;15.43;;;8.80;;
21299;SDS011;10809;49.476;11.016;2023-02-15T01:16:43;13.17;;;8.40;;
21299;SDS011;10809;49.476;11.016;2023-02-15T01:19:22;13.03;;;7.97;;
21299;SDS011;10809;49.476;11.016;2023-02-15T01:21:59;13.43;;;7.93;;
21299;SDS011;10809;49.476;11.016;2023-02-15T01:24:29;14.10;;;8.40;;
21299;SDS011;10809;49.476;11.016;2023-02-15T01:27:00;16.10;;;7.97;;
21299;SDS011;10809;49.476;11.016;2023-02-15T01:29:30;12.03;;;7.53;;
21299;SDS011;10809;49.476;11.016;2023-02-15T01:32:01;13.57;;;7.63;;
21299;SDS011;10809;49.476;11.016;2023-02-15T01:34:38;15.80;;;7.33;;
21299;SDS011;10809;49.476;11.016;2023-02-15T01:37:08;13.67;;;7.57;;
21299;SDS011;10809;49.476;11.016;2023-02-15T01:39:39;15.37;;;8.70;;
21299;SDS011;10809;49.476;11.016;2023-02-15T01:42:20;16.87;;;8.27;;
21299;SDS011;10809;49.476;11.016;2023-02-15T01:44:56;11.57;;;7.13;;
21299;SDS011;10809;49.476;11.016;2023-02-15T01:52:48;16.20;;;8.63;;
21299;SDS011;10809;49.476;11.016;2023-02-15T01:55:25;13.83;;;7.37;;
21299;SDS011;10809;49.476;11.016;2023-02-15T01:57:59;14.17;;;8.33;;
21299;SDS011;10809;49.476;11.016;2023-02-15T02:00:30;13.17;;;7.60;;
21299;SDS011;10809;49.476;11.016;2023-02-15T02:03:02;13.37;;;7.83;;
21299;SDS011;10809;49.476;11.016;2023-02-15T02:05:33;13.47;;;7.23;;
21299;SDS011;10809;49.476;11.016;2023-02-15T02:08:04;14.03;;;8.13;;
21299;SDS011;10809;49.476;11.016;2023-02-15T02:10:39;13.03;;;7.40;;
21299;SDS011;10809;49.476;11.016;2023-02-15T02:13:09;13.13;;;7.77;;
21299;SDS011;10809;49.476;11.016;2023-02-15T02:15:44;13.67;;;8.03;;
21299;SDS011;10809;49.476;11.016;2023-02-15T02:24:36;14.33;;;8.13;;
21299;SDS011;10809;49.476;11.016;2023-02-15T02:27:43;13.77;;;7.73;;
21299;SDS011;10809;49.476;11.016;2023-02-15T02:42:06;13.67;;;8.03;;
21299;SDS011;10809;49.476;11.016;2023-02-15T02:44:48;15.37;;;8.37;;
21299;SDS011;10809;49.476;11.016;2023-02-15T02:47:33;16.73;;;9.13;;
21299;SDS011;10809;49.476;11.016;2023-02-15T02:50:09;14.90;;;9.03;;
21299;SDS011;10809;49.476;11.016;2023-02-15T02:52:46;14.77;;;7.93;;
21299;SDS011;10809;49.476;11.016;2023-02-15T02:55:20;13.57;;;8.43;;
21299;SDS011;10809;49.476;11.016;2023-02-15T03:00:45;14.33;;;7.37;;
21299;SDS011;10809;49.476;11.016;2023-02-15T03:03:26;13.63;;;7.43;;
21299;SDS011;10809;49.476;11.016;2023-02-15T03:06:01;17.70;;;9.00;;
21299;SDS011;10809;49.476;11.016;2023-02-15T03:08:42;13.47;;;7.57;;
21299;SDS011;10809;49.476;11.016;2023-02-15T03:11:16;15.17;;;7.67;;
21299;SDS011;10809;49.476;11.016;2023-02-15T03:13:50;17.37;;;8.77;;
21299;SDS011;10809;49.476;11.016;2023-02-15T03:16:20;15.10;;;8.97;;
21299;SDS011;10809;49.476;11.016;2023-02-15T03:19:14;13.60;;;7.77;;
21299;SDS011;10809;49.476;11.016;2023-02-15T03:21:49;15.47;;;8.30;;
21299;SDS011;10809;49.476;11.016;2023-02-15T03:24:28;12.07;;;7.50;;
21299;SDS011;10809;49.476;11.016;2023-02-15T03:27:06;15.27;;;8.30;;
21299;SDS011;10809;49.476;11.016;2023-02-15T03:29:43;13.37;;;7.53;;
21299;SDS011;10809;49.476;11.016;2023-02-15T03:32:16;14.37;;;7.53;;
21299;SDS011;10809;49.476;11.016;2023-02-15T03:34:48;12.50;;;7.13;;
21299;SDS011;10809;49.476;11.016;2023-02-15T03:37:32;15.60;;;7.53;;
21299;SDS011;10809;49.476;11.016;2023-02-15T03:43:27;13.00;;;7.10;;
21299;SDS011;10809;49.476;11.016;2023-02-15T03:46:19;14.37;;;8.40;;
21299;SDS011;10809;49.476;11.016;2023-02-15T03:49:10;13.47;;;7.33;;
21299;SDS011;10809;49.476;11.016;2023-02-15T03:51:46;12.80;;;7.07;;
21299;SDS011;10809;49.476;11.016;2023-02-15T03:54:21;13.77;;;8.03;;
21299;SDS011;10809;49.476;11.016;2023-02-15T03:57:21;13.00;;;7.20;;
21299;SDS011;10809;49.476;11.016;2023-02-15T04:00:19;13.73;;;7.27;;
21299;SDS011;10809;49.476;11.016;2023-02-15T04:05:44;10.83;;;6.50;;
21299;SDS011;10809;49.476;11.016;2023-02-15T04:08:15;14.50;;;7.23;;
21299;SDS011;10809;49.476;11.016;2023-02-15T04:10:45;12.37;;;7.50;;
21299;SDS011;10809;49.476;11.016;2023-02-15T04:13:38;13.83;;;6.60;;
21299;SDS011;10809;49.476;11.016;2023-02-15T04:16:09;15.47;;;7.47;;
21299;SDS011;10809;49.476;11.016;2023-02-15T04:18:42;11.90;;;7.07;;
21299;SDS011;10809;49.476;11.016;2023-02-15T04:21:31;12.10;;;7.33;;
21299;SDS011;10809;49.476;11.016;2023-02-15T04:24:21;13.00;;;7.07;;
21299;SDS011;10809;49.476;11.016;2023-02-15T04:27:10;11.27;;;6.60;;
21299;SDS011;10809;49.476;11.016;2023-02-15T04:29:52;12.03;;;6.40;;
21299;SDS011;10809;49.476;11.016;2023-02-15T04:32:23;14.80;;;7.53;;
21299;SDS011;10809;49.476;11.016;2023-02-15T04:34:53;12.30;;;7.43;;
21299;SDS011;10809;49.476;11.016;2023-02-15T04:37:24;11.27;;;6.37;;
21299;SDS011;10809;49.476;11.016;2023-02-15T04:39:57;9.50;;;6.43;;
21299;SDS011;10809;49.476;11.016;2023-02-15T04:42:31;9.87;;;6.20;;
21299;SDS011;10809;49.476;11.016;2023-02-15T04:45:02;12.50;;;6.50;;
21299;SDS011;10809;49.476;11.016;2023-02-15T04:47:36;10.20;;;6.27;;
21299;SDS011;10809;49.476;11.016;2023-02-15T04:50:06;9.93;;;5.57;;
21299;SDS011;10809;49.476;11.016;2023-02-15T04:52:37;9.70;;;6.07;;
21299;SDS011;10809;49.476;11.016;2023-02-15T04:55:08;11.90;;;6.70;;
21299;SDS011;10809;49.476;11.016;2023-02-15T04:57:38;12.23;;;6.83;;
21299;SDS011;10809;49.476;11.016;2023-02-15T05:00:15;10.90;;;6.43;;
21299;SDS011;10809;49.476;11.016;2023-02-15T05:02:46;11.77;;;7.00;;
21299;SDS011;10809;49.476;11.016;2023-02-15T05:05:17;10.27;;;6.03;;
21299;SDS011;10809;49.476;11.016;2023-02-15T05:07:47;10.43;;;6.43;;
21299;SDS011;10809;49.476;11.016;2023-02-15T05:10:18;11.67;;;7.33;;
21299;SDS011;10809;49.476;11.016;2023-02-15T05:12:48;11.27;;;6.50;;
21299;SDS011;10809;49.476;11.016;2023-02-15T05:15:22;12.20;;;7.00;;
21299;SDS011;10809;49.476;11.016;2023-02-15T05:17:55;11.23;;;7.03;;
21299;SDS011;10809;49.476;11.016;2023-02-15T05:20:26;11.70;;;7.33;;
21299;SDS011;10809;49.476;11.016;2023-02-15T05:22:56;12.80;;;7.43;;
21299;SDS011;10809;49.476;11.016;2023-02-15T05:25:26;12.87;;;7.90;;
21299;SDS011;10809;49.476;11.016;2023-02-15T05:28:18;15.13;;;8.27;;
21299;SDS011;10809;49.476;11.016;2023-02-15T05:30:53;10.83;;;6.37;;
21299;SDS011;10809;49.476;11.016;2023-02-15T05:33:29;10.90;;;7.17;;
21299;SDS011;10809;49.476;11.016;2023-02-15T05:35:59;14.93;;;8.17;;
21299;SDS011;10809;49.476;11.016;2023-02-15T05:38:30;12.80;;;7.73;;
21299;SDS011;10809;49.476;11.016;2023-02-15T05:41:01;14.67;;;8.33;;
21299;SDS011;10809;49.476;11.016;2023-02-15T05:43:32;10.83;;;7.00;;
21299;SDS011;10809;49.476;11.016;2023-02-15T05:46:09;11.73;;;7.33;;
21299;SDS011;10809;49.476;11.016;2023-02-15T05:48:41;11.37;;;7.27;;
21299;SDS011;10809;49.476;11.016;2023-02-15T05:51:20;15.83;;;8.80;;
21299;SDS011;10809;49.476;11.016;2023-02-15T05:53:51;13.83;;;8.37;;
21299;SDS011;10809;49.476;11.016;2023-02-15T05:56:27;13.47;;;7.70;;
21299;SDS011;10809;49.476;11.016;2023-02-15T05:58:58;15.00;;;8.17;;
21299;SDS011;10809;49.476;11.016;2023-02-15T06:01:28;13.63;;;8.20;;
21299;SDS011;10809;49.476;11.016;2023-02-15T06:03:59;13.90;;;7.63;;
21299;SDS011;10809;49.476;11.016;2023-02-15T06:06:29;14.03;;;7.97;;
21299;SDS011;10809;49.476;11.016;2023-02-15T06:09:10;14.33;;;8.13;;
21299;SDS011;10809;49.476;11.016;2023-02-15T06:11:43;16.63;;;9.40;;
21299;SDS011;10809;49.476;11.016;2023-02-15T06:14:15;16.87;;;8.83;;
21299;SDS011;10809;49.476;11.016;2023-02-15T06:16:48;13.40;;;8.37;;
21299;SDS011;10809;49.476;11.016;2023-02-15T06:19:19;13.80;;;8.17;;
21299;SDS011;10809;49.476;11.016;2023-02-15T06:21:54;16.27;;;7.67;;
21299;SDS011;10809;49.476;11.016;2023-02-15T06:24:24;13.80;;;7.43;;
21299;SDS011;10809;49.476;11.016;2023-02-15T06:27:10;14.20;;;8.63;;
21299;SDS011;10809;49.476;11.016;2023-02-15T06:29:40;17.60;;;8.60;;
21299;SDS011;10809;49.476;11.016;2023-02-15T06:32:11;14.70;;;8.37;;
21299;SDS011;10809;49.476;11.016;2023-02-15T06:34:41;14.43;;;8.73;;
21299;SDS011;10809;49.476;11.016;2023-02-15T06:37:12;14.47;;;8.70;;
21299;SDS011;10809;49.476;11.016;2023-02-15T06:39:42;17.53;;;9.37;;
21299;SDS011;10809;49.476;11.016;2023-02-15T06:42:14;15.10;;;8.57;;
21299;SDS011;10809;49.476;11.016;2023-02-15T06:44:44;15.83;;;9.63;;
21299;SDS011;10809;49.476;11.016;2023-02-15T06:47:18;13.63;;;8.30;;
21299;SDS011;10809;49.476;11.016;2023-02-15T06:49:52;15.47;;;8.93;;
21299;SDS011;10809;49.476;11.016;2023-02-15T06:52:22;13.20;;;8.07;;
21299;SDS011;10809;49.476;11.016;2023-02-15T06:55:02;15.03;;;8.40;;
21299;SDS011;10809;49.476;11.016;2023-02-15T06:57:33;16.27;;;8.50;;
21299;SDS011;10809;49.476;11.016;2023-02-15T07:00:06;13.63;;;7.67;;
21299;SDS011;10809;49.476;11.016;2023-02-15T07:02:44;15.57;;;8.97;;
21299;SDS011;10809;49.476;11.016;2023-02-15T07:05:21;16.07;;;9.07;;
21299;SDS011;10809;49.476;11.016;2023-02-15T07:07:52;14.03;;;8.00;;
21299;SDS011;10809;49.476;11.016;2023-02-15T07:10:29;17.33;;;9.13;;
21299;SDS011;10809;49.476;11.016;2023-02-15T07:13:00;13.40;;;8.10;;
21299;SDS011;10809;49.476;11.016;2023-02-15T07:15:30;16.57;;;9.43;;
21299;SDS011;10809;49.476;11.016;2023-02-15T07:18:01;17.27;;;9.53;;
21299;SDS011;10809;49.476;11.016;2023-02-15T07:20:35;15.07;;;8.37;;
21299;SDS011;10809;49.476;11.016;2023-02-15T07:23:08;13.93;;;7.53;;
21299;SDS011;10809;49.476;11.016;2023-02-15T07:25:42;14.70;;;7.87;;
21299;SDS011;10809;49.476;11.016;2023-02-15T07:28:12;15.00;;;9.30;;
21299;SDS011;10809;49.476;11.016;2023-02-15T07:30:43;15.47;;;8.20;;
21299;SDS011;10809;49.476;11.016;2023-02-15T07:33:13;14.50;;;7.80;;
21299;SDS011;10809;49.476;11.016;2023-02-15T07:35:53;14.97;;;8.30;;
21299;SDS011;10809;49.476;11.016;2023-02-15T07:38:30;13.67;;;7.97;;
21299;SDS011;10809;49.476;11.016;2023-02-15T07:41:06;15.30;;;8.40;;
21299;SDS011;10809;49.476;11.016;2023-02-15T07:43:42;15.13;;;9.07;;
21299;SDS011;10809;49.476;11.016;2023-02-15T07:46:15;16.57;;;8.97;;
21299;SDS011;10809;49.476;11.016;2023-02-15T07:48:55;18.40;;;8.70;;
21299;SDS011;10809;49.476;11.016;2023-02-15T07:51:25;14.07;;;8.07;;
21299;SDS011;10809;49.476;11.016;2023-02-15T07:53:56;15.03;;;8.83;;
21299;SDS011;10809;49.476;11.016;2023-02-15T07:56:26;16.50;;;9.07;;
21299;SDS011;10809;49.476;11.016;2023-02-15T07:59:06;13.77;;;7.63;;
21299;SDS011;10809;49.476;11.016;2023-02-15T08:01:38;16.73;;;8.47;;
21299;SDS011;10809;49.476;11.016;2023-02-15T08:04:10;16.00;;;8.23;;
21299;SDS011;10809;49.476;11.016;2023-02-15T08:06:47;15.97;;;8.17;;
21299;SDS011;10809;49.476;11.016;2023-02-15T08:09:22;15.90;;;8.20;;
21299;SDS011;10809;49.476;11.016;2023-02-15T08:11:53;14.80;;;8.43;;
21299;SDS011;10809;49.476;11.016;2023-02-15T08:14:23;15.90;;;7.20;;
21299;SDS011;10809;49.476;11.016;2023-02-15T08:16:55;14.40;;;7.37;;
21299;SDS011;10809;49.476;11.016;2023-02-15T08:19:30;12.77;;;7.60;;
21299;SDS011;10809;49.476;11.016;2023-02-15T08:22:03;12.60;;;7.70;;
21299;SDS011;10809;49.476;11.016;2023-02-15T08:24:40;13.27;;;7.63;;
21299;SDS011;10809;49.476;11.016;2023-02-15T08:27:11;14.67;;;7.63;;
21299;SDS011;10809;49.476;11.016;2023-02-15T08:29:42;13.77;;;7.83;;
21299;SDS011;10809;49.476;11.016;2023-02-15T08:32:13;14.60;;;8.30;;
21299;SDS011;10809;49.476;11.016;2023-02-15T08:34:43;14.33;;;7.83;;
21299;SDS011;10809;49.476;11.016;2023-02-15T08:37:14;14.37;;;7.57;;
21299;SDS011;10809;49.476;11.016;2023-02-15T08:39:45;14.17;;;7.67;;
21299;SDS011;10809;49.476;11.016;2023-02-15T08:42:16;14.03;;;7.10;;
21299;SDS011;10809;49.476;11.016;2023-02-15T08:44:46;15.10;;;8.33;;
21299;SDS011;10809;49.476;11.016;2023-02-15T08:47:17;14.50;;;7.50;;
21299;SDS011;10809;49.476;11.016;2023-02-15T08:49:47;13.33;;;7.47;;
21299;SDS011;10809;49.476;11.016;2023-02-15T08:52:18;12.87;;;7.80;;
21299;SDS011;10809;49.476;11.016;2023-02-15T08:54:49;16.47;;;8.47;;
21299;SDS011;10809;49.476;11.016;2023-02-15T08:57:22;12.93;;;8.37;;
21299;SDS011;10809;49.476;11.016;2023-02-15T08:59:53;15.80;;;8.20;;
21299;SDS011;10809;49.476;11.016;2023-02-15T09:02:25;16.93;;;8.80;;
21299;SDS011;10809;49.476;11.016;2023-02-15T09:04:55;15.00;;;8.00;;
21299;SDS011;10809;49.476;11.016;2023-02-15T09:07:26;16.13;;;9.23;;
21299;SDS011;10809;49.476;11.016;2023-02-15T09:09:57;14.63;;;8.83;;
21299;SDS011;10809;49.476;11.016;2023-02-15T09:12:30;16.47;;;8.40;;
21299;SDS011;10809;49.476;11.016;2023-02-15T09:15:04;14.30;;;8.53;;
21299;SDS011;10809;49.476;11.016;2023-02-15T09:17:35;14.47;;;7.57;;
21299;SDS011;10809;49.476;11.016;2023-02-15T09:20:06;14.37;;;8.33;;
21299;SDS011;10809;49.476;11.016;2023-02-15T09:22:37;16.67;;;8.83;;
21299;SDS011;10809;49.476;11.016;2023-02-15T09:25:07;16.33;;;9.17;;
21299;SDS011;10809;49.476;11.016;2023-02-15T09:27:38;20.67;;;9.33;;
21299;SDS011;10809;49.476;11.016;2023-02-15T09:30:09;21.00;;;9.47;;
21299;SDS011;10809;49.476;11.016;2023-02-15T09:32:41;16.93;;;9.37;;
21299;SDS011;10809;49.476;11.016;2023-02-15T09:35:11;15.33;;;8.40;;
21299;SDS011;10809;49.476;11.016;2023-02-15T09:37:42;17.07;;;9.00;;
21299;SDS011;10809;49.476;11.016;2023-02-15T09:40:13;16.70;;;9.57;;
21299;SDS011;10809;49.476;11.016;2023-02-15T09:43:06;17.87;;;9.80;;
21299;SDS011;10809;49.476;11.016;2023-02-15T09:46:18;18.17;;;8.60;;
21299;SDS011;10809;49.476;11.016;2023-02-15T09:49:16;18.73;;;10.10;;
21299;SDS011;10809;49.476;11.016;2023-02-15T09:52:32;18.33;;;9.20;;
21299;SDS011;10809;49.476;11.016;2023-02-15T09:55:22;17.57;;;9.20;;
21299;SDS011;10809;49.476;11.016;2023-02-15T09:58:15;17.13;;;8.90;;
21299;SDS011;10809;49.476;11.016;2023-02-15T10:00:58;16.80;;;9.07;;
21299;SDS011;10809;49.476;11.016;2023-02-15T10:04:03;16.97;;;9.23;;
21299;SDS011;10809;49.476;11.016;2023-02-15T10:12:31;19.30;;;8.43;;
21299;SDS011;10809;49.476;11.016;2023-02-15T10:15:23;16.50;;;8.73;;
21299;SDS011;10809;49.476;11.016;2023-02-15T10:27:17;14.33;;;7.83;;
21299;SDS011;10809;49.476;11.016;2023-02-15T10:29:55;16.87;;;8.03;;
21299;SDS011;10809;49.476;11.016;2023-02-15T10:32:32;15.57;;;8.43;;
21299;SDS011;10809;49.476;11.016;2023-02-15T10:38:25;13.10;;;7.43;;
21299;SDS011;10809;49.476;11.016;2023-02-15T10:42:00;18.47;;;8.33;;
21299;SDS011;10809;49.476;11.016;2023-02-15T10:44:27;17.83;;;8.27;;
21299;SDS011;10809;49.476;11.016;2023-02-15T10:55:28;15.30;;;7.70;;
21299;SDS011;10809;49.476;11.016;2023-02-15T10:58:29;12.87;;;8.10;;
21299;SDS011;10809;49.476;11.016;2023-02-15T11:01:31;18.33;;;8.33;;
21299;SDS011;10809;49.476;11.016;2023-02-15T11:07:24;24.20;;;9.07;;
21299;SDS011;10809;49.476;11.016;2023-02-15T11:10:06;13.83;;;8.23;;
21299;SDS011;10809;49.476;11.016;2023-02-15T11:12:55;12.67;;;8.10;;
21299;SDS011;10809;49.476;11.016;2023-02-15T11:15:30;12.83;;;7.83;;
21299;SDS011;10809;49.476;11.016;2023-02-15T11:18:11;13.67;;;7.07;;
21299;SDS011;10809;49.476;11.016;2023-02-15T11:20:50;14.27;;;7.83;;
21299;SDS011;10809;49.476;11.016;2023-02-15T11:23:25;15.73;;;7.63;;
21299;SDS011;10809;49.476;11.016;2023-02-15T11:25:58;16.57;;;9.00;;
21299;SDS011;10809;49.476;11.016;2023-02-15T11:28:36;12.10;;;7.67;;
21299;SDS011;10809;49.476;11.016;2023-02-15T11:31:15;13.73;;;8.47;;
21299;SDS011;10809;49.476;11.016;2023-02-15T11:33:53;13.90;;;8.60;;
21299;SDS011;10809;49.476;11.016;2023-02-15T11:36:40;13.77;;;8.50;;
21299;SDS011;10809;49.476;11.016;2023-02-15T11:39:14;16.63;;;8.43;;
21299;SDS011;10809;49.476;11.016;2023-02-15T11:41:48;14.17;;;8.63;;
21299;SDS011;10809;49.476;11.016;2023-02-15T11:44:28;14.67;;;8.13;;
21299;SDS011;10809;49.476;11.016;2023-02-15T11:47:02;13.53;;;7.50;;
21299;SDS011;10809;49.476;11.016;2023-02-15T11:49:33;12.87;;;7.40;;
21299;SDS011;10809;49.476;11.016;2023-02-15T11:52:05;12.67;;;7.97;;
21299;SDS011;10809;49.476;11.016;2023-02-15T11:54:46;18.07;;;9.17;;
21299;SDS011;10809;49.476;11.016;2023-02-15T12:00:03;15.27;;;8.17;;
21299;SDS011;10809;49.476;11.016;2023-02-15T12:02:44;15.63;;;8.40;;
21299;SDS011;10809;49.476;11.016;2023-02-15T12:05:21;14.67;;;8.87;;
21299;SDS011;10809;49.476;11.016;2023-02-15T12:10:38;15.03;;;9.53;;
21299;SDS011;10809;49.476;11.016;2023-02-15T12:13:15;13.07;;;8.70;;
21299;SDS011;10809;49.476;11.016;2023-02-15T12:15:48;17.50;;;9.80;;
21299;SDS011;10809;49.476;11.016;2023-02-15T12:18:41;17.30;;;10.27;;
21299;SDS011;10809;49.476;11.016;2023-02-15T12:24:03;16.20;;;8.47;;
21299;SDS011;10809;49.476;11.016;2023-02-15T12:29:29;15.03;;;9.23;;
21299;SDS011;10809;49.476;11.016;2023-02-15T12:32:05;17.03;;;10.27;;
21299;SDS011;10809;49.476;11.016;2023-02-15T12:34:42;17.43;;;11.23;;
21299;SDS011;10809;49.476;11.016;2023-02-15T12:37:25;18.47;;;10.47;;
21299;SDS011;10809;49.476;11.016;2023-02-15T12:39:59;16.37;;;9.30;;
21299;SDS011;10809;49.476;11.016;2023-02-15T12:42:43;17.40;;;10.17;;
21299;SDS011;10809;49.476;11.016;2023-02-15T12:45:28;17.40;;;9.93;;
21299;SDS011;10809;49.476;11.016;2023-02-15T12:48:13;19.40;;;10.43;;
21299;SDS011;10809;49.476;11.016;2023-02-15T12:50:50;18.77;;;10.30;;
21299;SDS011;10809;49.476;11.016;2023-02-15T12:53:22;20.33;;;10.77;;
21299;SDS011;10809;49.476;11.016;2023-02-15T12:56:03;18.20;;;11.07;;
21299;SDS011;10809;49.476;11.016;2023-02-15T12:58:37;19.83;;;11.00;;
21299;SDS011;10809;49.476;11.016;2023-02-15T13:01:18;16.87;;;10.90;;
21299;SDS011;10809;49.476;11.016;2023-02-15T13:06:29;17.07;;;10.30;;
21299;SDS011;10809;49.476;11.016;2023-02-15T13:14:56;15.73;;;10.23;;
21299;SDS011;10809;49.476;11.016;2023-02-15T13:17:32;20.53;;;11.60;;
21299;SDS011;10809;49.476;11.016;2023-02-15T13:20:05;22.17;;;11.50;;
21299;SDS011;10809;49.476;11.016;2023-02-15T13:22:46;17.57;;;11.07;;
21299;SDS011;10809;49.476;11.016;2023-02-15T13:25:21;20.23;;;10.60;;
21299;SDS011;10809;49.476;11.016;2023-02-15T13:28:00;16.30;;;10.43;;
21299;SDS011;10809;49.476;11.016;2023-02-15T13:30:42;18.97;;;10.73;;
21299;SDS011;10809;49.476;11.016;2023-02-15T13:33:27;20.27;;;11.97;;
21299;SDS011;10809;49.476;11.016;2023-02-15T13:36:10;17.13;;;10.60;;
21299;SDS011;10809;49.476;11.016;2023-02-15T13:39:20;17.87;;;10.80;;
21299;SDS011;10809;49.476;11.016;2023-02-15T13:44:54;16.37;;;10.67;;
21299;SDS011;10809;49.476;11.016;2023-02-15T13:50:34;17.07;;;10.67;;
21299;SDS011;10809;49.476;11.016;2023-02-15T14:05:47;14.77;;;10.27;;
21299;SDS011;10809;49.476;11.016;2023-02-15T14:11:26;19.60;;;11.57;;
21299;SDS011;10809;49.476;11.016;2023-02-15T14:14:20;18.63;;;11.13;;
21299;SDS011;10809;49.476;11.016;2023-02-15T14:28:15;18.00;;;11.07;;
21299;SDS011;10809;49.476;11.016;2023-02-15T14:30:48;19.03;;;12.07;;
21299;SDS011;10809;49.476;11.016;2023-02-15T14:36:07;16.40;;;10.47;;
21299;SDS011;10809;49.476;11.016;2023-02-15T14:39:07;16.67;;;10.60;;
21299;SDS011;10809;49.476;11.016;2023-02-15T14:42:27;16.40;;;10.17;;
21299;SDS011;10809;49.476;11.016;2023-02-15T14:45:15;14.60;;;10.10;;
21299;SDS011;10809;49.476;11.016;2023-02-15T14:48:28;17.60;;;10.73;;
21299;SDS011;10809;49.476;11.016;2023-02-15T14:50:57;18.90;;;11.00;;
21299;SDS011;10809;49.476;11.016;2023-02-15T14:53:35;19.37;;;10.97;;
21299;SDS011;10809;49.476;11.016;2023-02-15T14:56:17;16.80;;;11.47;;
21299;SDS011;10809;49.476;11.016;2023-02-15T15:01:29;15.90;;;10.97;;
21299;SDS011;10809;49.476;11.016;2023-02-15T15:04:06;15.97;;;10.97;;
21299;SDS011;10809;49.476;11.016;2023-02-15T15:06:42;15.87;;;10.47;;
21299;SDS011;10809;49.476;11.016;2023-02-15T15:09:26;15.40;;;10.73;;
21299;SDS011;10809;49.476;11.016;2023-02-15T15:12:41;16.27;;;11.57;;
21299;SDS011;10809;49.476;11.016;2023-02-15T15:14:52;18.83;;;11.33;;
21299;SDS011;10809;49.476;11.016;2023-02-15T15:20:05;18.53;;;11.80;;
21299;SDS011;10809;49.476;11.016;2023-02-15T15:26:21;17.83;;;11.37;;
21299;SDS011;10809;49.476;11.016;2023-02-15T15:28:58;19.10;;;11.67;;
21299;SDS011;10809;49.476;11.016;2023-02-15T15:31:43;20.70;;;12.30;;
21299;SDS011;10809;49.476;11.016;2023-02-15T15:34:22;19.30;;;12.50;;
21299;SDS011;10809;49.476;11.016;2023-02-15T15:43:19;21.43;;;13.23;;
21299;SDS011;10809;49.476;11.016;2023-02-15T15:45:57;19.23;;;11.80;;
21299;SDS011;10809;49.476;11.016;2023-02-15T15:48:46;21.57;;;13.70;;
21299;SDS011;10809;49.476;11.016;2023-02-15T15:51:20;23.40;;;13.07;;
21299;SDS011;10809;49.476;11.016;2023-02-15T15:54:01;26.93;;;14.87;;
21299;SDS011;10809;49.476;11.016;2023-02-15T15:56:34;26.97;;;15.20;;
21299;SDS011;10809;49.476;11.016;2023-02-15T15:59:12;29.87;;;14.40;;
21299;SDS011;10809;49.476;11.016;2023-02-15T16:01:48;25.30;;;14.67;;
21299;SDS011;10809;49.476;11.016;2023-02-15T16:04:23;21.73;;;13.63;;
21299;SDS011;10809;49.476;11.016;2023-02-15T16:07:13;21.77;;;13.10;;
21299;SDS011;10809;49.476;11.016;2023-02-15T16:12:35;22.70;;;12.83;;
21299;SDS011;10809;49.476;11.016;2023-02-15T16:15:20;21.73;;;13.17;;
21299;SDS011;10809;49.476;11.016;2023-02-15T16:17:58;19.40;;;12.20;;
21299;SDS011;10809;49.476;11.016;2023-02-15T16:20:36;23.70;;;14.20;;
21299;SDS011;10809;49.476;11.016;2023-02-15T16:26:00;18.53;;;12.00;;
21299;SDS011;10809;49.476;11.016;2023-02-15T16:28:52;20.53;;;12.73;;
21299;SDS011;10809;49.476;11.016;2023-02-15T16:31:24;21.40;;;13.47;;
21299;SDS011;10809;49.476;11.016;2023-02-15T16:33:54;19.67;;;11.77;;
21299;SDS011;10809;49.476;11.016;2023-02-15T16:36:26;23.73;;;12.97;;
21299;SDS011;10809;49.476;11.016;2023-02-15T16:41:36;24.43;;;13.83;;
21299;SDS011;10809;49.476;11.016;2023-02-15T16:44:11;24.37;;;14.67;;
21299;SDS011;10809;49.476;11.016;2023-02-15T16:46:52;19.47;;;12.53;;
21299;SDS011;10809;49.476;11.016;2023-02-15T16:49:27;23.17;;;13.17;;
21299;SDS011;10809;49.476;11.016;2023-02-15T16:51:59;21.07;;;13.70;;
21299;SDS011;10809;49.476;11.016;2023-02-15T16:54:45;22.20;;;13.67;;
21299;SDS011;10809;49.476;11.016;2023-02-15T16:57:21;21.23;;;14.07;;
21299;SDS011;10809;49.476;11.016;2023-02-15T17:00:00;22.87;;;13.40;;
21299;SDS011;10809;49.476;11.016;2023-02-15T17:02:34;20.57;;;12.57;;
21299;SDS011;10809;49.476;11.016;2023-02-15T17:07:52;25.40;;;14.30;;
21299;SDS011;10809;49.476;11.016;2023-02-15T17:10:37;27.80;;;14.07;;
21299;SDS011;10809;49.476;11.016;2023-02-15T17:13:15;24.20;;;13.93;;
21299;SDS011;10809;49.476;11.016;2023-02-15T17:18:52;22.83;;;13.77;;
21299;SDS011;10809;49.476;11.016;2023-02-15T17:21:25;22.10;;;13.53;;
21299;SDS011;10809;49.476;11.016;2023-02-15T17:24:03;20.47;;;12.50;;
21299;SDS011;10809;49.476;11.016;2023-02-15T17:26:49;24.87;;;14.93;;
21299;SDS011;10809;49.476;11.016;2023-02-15T17:32:31;24.43;;;13.27;;
21299;SDS011;10809;49.476;11.016;2023-02-15T17:35:22;24.40;;;14.93;;
21299;SDS011;10809;49.476;11.016;2023-02-15T17:38:05;22.57;;;13.70;;
21299;SDS011;10809;49.476;11.016;2023-02-15T17:40:50;24.13;;;14.07;;
21299;SDS011;10809;49.476;11.016;2023-02-15T17:43:21;25.17;;;13.90;;